Decoded Metar for LZZI (ZILINA in SLOVAKIA) (IATA:N/A) | Meteo·Mobile Aviation Weather
aviador You're here:

LZZI Decoded Metar

ZILINA in SLOVAKIA
Report Time2019-09-21 09:18:00
UTC Time2019-09-21 09:35:04
Flight Rules vfr VFR
WindVRB at 02 kt
Visibility9999 m
Phenomena:N/A
Clouds:N/A
Expected CloudBase > 3,200 ft AGL from Temp-Dew spread
CeilingNone
Temp13°C (ISA 0)
Dew Point05°C (59% RH)
AAT11.2°C
QNH1027 hPa
Density Alt676 ft
Elevation1,020 ft
Report Wrong Elevation
Raw Report
SPECI LZZI 210918Z VRB02KT CAVOK 13/05 Q1027=

Extra information for LZZI:More info

Metar Taf Metar & Taf Last 4 Metars F.Rules Stats Wind Profile Meteogram Temp Stats Airport Information Weather charts Add Link Nearby VenuesMetar ALERT Operation Metar Decoded Social comments